sensor_id;sensor_type;location;lat;lon;timestamp;temperature;humidity
15355;DHT22;7777;52.254;9.618;2023-12-22T00:00:04;5.70;99.90
15355;DHT22;7777;52.254;9.618;2023-12-22T00:02:33;5.70;99.90
15355;DHT22;7777;52.254;9.618;2023-12-22T00:04:58;5.70;99.90
15355;DHT22;7777;52.254;9.618;2023-12-22T00:07:24;5.70;99.90
15355;DHT22;7777;52.254;9.618;2023-12-22T00:09:50;5.70;99.90
15355;DHT22;7777;52.254;9.618;2023-12-22T00:12:16;5.70;99.90
15355;DHT22;7777;52.254;9.618;2023-12-22T00:14:42;5.70;99.90
15355;DHT22;7777;52.254;9.618;2023-12-22T00:17:07;5.70;99.90
15355;DHT22;7777;52.254;9.618;2023-12-22T00:19:35;5.60;99.90
15355;DHT22;7777;52.254;9.618;2023-12-22T00:22:01;5.60;99.90
15355;DHT22;7777;52.254;9.618;2023-12-22T00:24:28;5.60;99.90
15355;DHT22;7777;52.254;9.618;2023-12-22T00:26:54;5.60;99.90
15355;DHT22;7777;52.254;9.618;2023-12-22T00:29:20;5.60;99.90
15355;DHT22;7777;52.254;9.618;2023-12-22T00:31:46;5.60;99.90
15355;DHT22;7777;52.254;9.618;2023-12-22T00:34:13;5.60;99.90
15355;DHT22;7777;52.254;9.618;2023-12-22T00:36:39;5.60;99.90
15355;DHT22;7777;52.254;9.618;2023-12-22T00:39:04;5.60;99.90
15355;DHT22;7777;52.254;9.618;2023-12-22T00:41:30;5.60;99.90
15355;DHT22;7777;52.254;9.618;2023-12-22T00:43:56;5.60;99.90
15355;DHT22;7777;52.254;9.618;2023-12-22T00:46:23;5.60;99.90
15355;DHT22;7777;52.254;9.618;2023-12-22T00:48:49;5.60;99.90
15355;DHT22;7777;52.254;9.618;2023-12-22T00:51:14;5.60;99.90
15355;DHT22;7777;52.254;9.618;2023-12-22T00:53:41;5.60;99.90
15355;DHT22;7777;52.254;9.618;2023-12-22T00:56:09;5.60;99.90
15355;DHT22;7777;52.254;9.618;2023-12-22T00:58:35;5.60;99.90
15355;DHT22;7777;52.254;9.618;2023-12-22T01:01:00;5.60;99.90
15355;DHT22;7777;52.254;9.618;2023-12-22T01:03:27;5.60;99.90
15355;DHT22;7777;52.254;9.618;2023-12-22T01:05:53;5.60;99.90
15355;DHT22;7777;52.254;9.618;2023-12-22T01:08:20;5.60;99.90
15355;DHT22;7777;52.254;9.618;2023-12-22T01:10:46;5.60;99.90
15355;DHT22;7777;52.254;9.618;2023-12-22T01:13:12;5.60;99.90
15355;DHT22;7777;52.254;9.618;2023-12-22T01:15:39;5.60;99.90
15355;DHT22;7777;52.254;9.618;2023-12-22T01:18:06;5.60;99.90
15355;DHT22;7777;52.254;9.618;2023-12-22T01:20:32;5.60;99.90
15355;DHT22;7777;52.254;9.618;2023-12-22T01:22:58;5.60;99.90
15355;DHT22;7777;52.254;9.618;2023-12-22T01:25:23;5.60;99.90
15355;DHT22;7777;52.254;9.618;2023-12-22T01:27:49;5.70;99.90
15355;DHT22;7777;52.254;9.618;2023-12-22T01:30:17;5.60;99.90
15355;DHT22;7777;52.254;9.618;2023-12-22T01:32:44;5.70;99.90
15355;DHT22;7777;52.254;9.618;2023-12-22T01:35:10;5.70;99.90
15355;DHT22;7777;52.254;9.618;2023-12-22T01:37:36;5.70;99.90
15355;DHT22;7777;52.254;9.618;2023-12-22T01:40:02;5.70;99.90
15355;DHT22;7777;52.254;9.618;2023-12-22T01:42:28;5.70;99.90
15355;DHT22;7777;52.254;9.618;2023-12-22T01:44:54;5.70;99.90
15355;DHT22;7777;52.254;9.618;2023-12-22T01:47:22;5.70;99.90
15355;DHT22;7777;52.254;9.618;2023-12-22T01:49:48;5.70;99.90
15355;DHT22;7777;52.254;9.618;2023-12-22T01:52:15;5.70;99.90
15355;DHT22;7777;52.254;9.618;2023-12-22T01:54:42;5.60;99.90
15355;DHT22;7777;52.254;9.618;2023-12-22T01:57:13;5.70;99.90
15355;DHT22;7777;52.254;9.618;2023-12-22T01:59:39;5.60;99.90
15355;DHT22;7777;52.254;9.618;2023-12-22T02:02:05;5.60;99.90
15355;DHT22;7777;52.254;9.618;2023-12-22T02:04:31;5.60;99.90
15355;DHT22;7777;52.254;9.618;2023-12-22T02:06:59;5.60;99.90
15355;DHT22;7777;52.254;9.618;2023-12-22T02:09:27;5.60;99.90
15355;DHT22;7777;52.254;9.618;2023-12-22T02:11:52;5.60;99.90
15355;DHT22;7777;52.254;9.618;2023-12-22T02:14:18;5.60;99.90
15355;DHT22;7777;52.254;9.618;2023-12-22T02:17:05;5.60;99.90
15355;DHT22;7777;52.254;9.618;2023-12-22T02:19:48;5.60;99.90
15355;DHT22;7777;52.254;9.618;2023-12-22T02:22:14;5.60;99.90
15355;DHT22;7777;52.254;9.618;2023-12-22T02:24:41;5.60;99.90
15355;DHT22;7777;52.254;9.618;2023-12-22T02:33:22;5.60;99.90
15355;DHT22;7777;52.254;9.618;2023-12-22T02:35:49;5.60;99.90
15355;DHT22;7777;52.254;9.618;2023-12-22T02:38:16;5.50;99.90
15355;DHT22;7777;52.254;9.618;2023-12-22T02:40:43;5.50;99.90
15355;DHT22;7777;52.254;9.618;2023-12-22T02:43:11;5.40;99.90
15355;DHT22;7777;52.254;9.618;2023-12-22T02:45:36;5.40;99.90
15355;DHT22;7777;52.254;9.618;2023-12-22T02:48:02;5.40;99.90
15355;DHT22;7777;52.254;9.618;2023-12-22T02:50:30;5.40;99.90
15355;DHT22;7777;52.254;9.618;2023-12-22T02:52:55;5.30;99.90
15355;DHT22;7777;52.254;9.618;2023-12-22T02:55:21;5.30;99.90
15355;DHT22;7777;52.254;9.618;2023-12-22T02:57:47;5.30;99.90
15355;DHT22;7777;52.254;9.618;2023-12-22T03:00:13;5.30;99.90
15355;DHT22;7777;52.254;9.618;2023-12-22T03:02:39;5.30;99.90
15355;DHT22;7777;52.254;9.618;2023-12-22T03:05:05;5.30;99.90
15355;DHT22;7777;52.254;9.618;2023-12-22T03:07:31;5.30;99.90
15355;DHT22;7777;52.254;9.618;2023-12-22T03:09:58;5.30;99.90
15355;DHT22;7777;52.254;9.618;2023-12-22T03:12:24;5.30;99.90
15355;DHT22;7777;52.254;9.618;2023-12-22T03:14:49;5.30;99.90
15355;DHT22;7777;52.254;9.618;2023-12-22T03:17:15;5.20;99.90
15355;DHT22;7777;52.254;9.618;2023-12-22T03:19:41;5.20;99.90
15355;DHT22;7777;52.254;9.618;2023-12-22T03:22:07;5.20;99.90
15355;DHT22;7777;52.254;9.618;2023-12-22T03:24:32;5.20;99.90
15355;DHT22;7777;52.254;9.618;2023-12-22T03:26:58;5.20;99.90
15355;DHT22;7777;52.254;9.618;2023-12-22T03:29:24;5.20;99.90
15355;DHT22;7777;52.254;9.618;2023-12-22T03:31:50;5.20;99.90
15355;DHT22;7777;52.254;9.618;2023-12-22T03:34:16;5.20;99.90
15355;DHT22;7777;52.254;9.618;2023-12-22T03:36:42;5.20;99.90
15355;DHT22;7777;52.254;9.618;2023-12-22T03:39:07;5.20;99.90
15355;DHT22;7777;52.254;9.618;2023-12-22T03:41:33;5.20;99.90
15355;DHT22;7777;52.254;9.618;2023-12-22T03:44:00;5.20;99.90
15355;DHT22;7777;52.254;9.618;2023-12-22T03:46:26;5.10;99.90
15355;DHT22;7777;52.254;9.618;2023-12-22T03:48:52;5.20;99.90
15355;DHT22;7777;52.254;9.618;2023-12-22T03:51:18;5.20;99.90
15355;DHT22;7777;52.254;9.618;2023-12-22T03:53:43;5.20;99.90
15355;DHT22;7777;52.254;9.618;2023-12-22T03:56:09;5.10;99.90
15355;DHT22;7777;52.254;9.618;2023-12-22T03:58:36;5.20;99.90
15355;DHT22;7777;52.254;9.618;2023-12-22T04:01:02;5.20;99.90
15355;DHT22;7777;52.254;9.618;2023-12-22T04:03:28;5.20;99.90
15355;DHT22;7777;52.254;9.618;2023-12-22T04:05:54;5.20;99.90
15355;DHT22;7777;52.254;9.618;2023-12-22T04:08:21;5.20;99.90
15355;DHT22;7777;52.254;9.618;2023-12-22T04:10:47;5.20;99.90
15355;DHT22;7777;52.254;9.618;2023-12-22T04:13:13;5.20;99.90
15355;DHT22;7777;52.254;9.618;2023-12-22T04:15:40;5.10;99.90
15355;DHT22;7777;52.254;9.618;2023-12-22T04:18:06;5.20;99.90
15355;DHT22;7777;52.254;9.618;2023-12-22T04:20:33;5.20;99.90
15355;DHT22;7777;52.254;9.618;2023-12-22T04:22:58;5.20;99.90
15355;DHT22;7777;52.254;9.618;2023-12-22T04:25:24;5.20;99.90
15355;DHT22;7777;52.254;9.618;2023-12-22T04:27:51;5.20;99.90
15355;DHT22;7777;52.254;9.618;2023-12-22T04:30:17;5.20;99.90
15355;DHT22;7777;52.254;9.618;2023-12-22T04:32:43;5.20;99.90
15355;DHT22;7777;52.254;9.618;2023-12-22T04:35:09;5.20;99.90
15355;DHT22;7777;52.254;9.618;2023-12-22T04:37:35;5.20;99.90
15355;DHT22;7777;52.254;9.618;2023-12-22T04:40:01;5.30;99.90
15355;DHT22;7777;52.254;9.618;2023-12-22T04:42:27;5.30;99.90
15355;DHT22;7777;52.254;9.618;2023-12-22T04:44:53;5.30;99.90
15355;DHT22;7777;52.254;9.618;2023-12-22T04:47:19;5.30;99.90
15355;DHT22;7777;52.254;9.618;2023-12-22T04:49:46;5.30;99.90
15355;DHT22;7777;52.254;9.618;2023-12-22T04:52:12;5.30;99.90
15355;DHT22;7777;52.254;9.618;2023-12-22T04:54:39;5.30;99.90
15355;DHT22;7777;52.254;9.618;2023-12-22T04:57:05;5.30;99.90
15355;DHT22;7777;52.254;9.618;2023-12-22T04:59:30;5.30;99.90
15355;DHT22;7777;52.254;9.618;2023-12-22T05:01:59;5.40;99.90
15355;DHT22;7777;52.254;9.618;2023-12-22T05:04:25;5.40;99.90
15355;DHT22;7777;52.254;9.618;2023-12-22T05:06:51;5.40;99.90
15355;DHT22;7777;52.254;9.618;2023-12-22T05:09:18;5.40;99.90
15355;DHT22;7777;52.254;9.618;2023-12-22T05:11:43;5.40;99.90
15355;DHT22;7777;52.254;9.618;2023-12-22T05:14:10;5.40;99.90
15355;DHT22;7777;52.254;9.618;2023-12-22T05:16:36;5.40;99.90
15355;DHT22;7777;52.254;9.618;2023-12-22T05:19:02;5.40;99.90
15355;DHT22;7777;52.254;9.618;2023-12-22T05:21:28;5.40;99.90
15355;DHT22;7777;52.254;9.618;2023-12-22T05:23:55;5.40;99.90
15355;DHT22;7777;52.254;9.618;2023-12-22T05:26:21;5.40;99.90
15355;DHT22;7777;52.254;9.618;2023-12-22T05:28:47;5.30;99.90
15355;DHT22;7777;52.254;9.618;2023-12-22T05:31:15;5.40;99.90
15355;DHT22;7777;52.254;9.618;2023-12-22T05:33:42;5.40;99.90
15355;DHT22;7777;52.254;9.618;2023-12-22T05:36:11;5.30;99.90
15355;DHT22;7777;52.254;9.618;2023-12-22T05:38:38;5.30;99.90
15355;DHT22;7777;52.254;9.618;2023-12-22T05:41:04;5.30;99.90
15355;DHT22;7777;52.254;9.618;2023-12-22T05:43:32;5.40;99.90
15355;DHT22;7777;52.254;9.618;2023-12-22T05:45:58;5.30;99.90
15355;DHT22;7777;52.254;9.618;2023-12-22T05:48:26;5.40;99.90
15355;DHT22;7777;52.254;9.618;2023-12-22T05:50:56;5.40;99.90
15355;DHT22;7777;52.254;9.618;2023-12-22T05:53:23;5.40;99.90
15355;DHT22;7777;52.254;9.618;2023-12-22T05:55:49;5.40;99.90
15355;DHT22;7777;52.254;9.618;2023-12-22T05:58:15;5.40;99.90
15355;DHT22;7777;52.254;9.618;2023-12-22T06:00:40;5.40;99.90
15355;DHT22;7777;52.254;9.618;2023-12-22T06:03:06;5.40;99.90
15355;DHT22;7777;52.254;9.618;2023-12-22T06:05:32;5.40;99.90
15355;DHT22;7777;52.254;9.618;2023-12-22T06:07:57;5.40;99.90
15355;DHT22;7777;52.254;9.618;2023-12-22T06:10:23;5.40;99.90
15355;DHT22;7777;52.254;9.618;2023-12-22T06:12:49;5.40;99.90
15355;DHT22;7777;52.254;9.618;2023-12-22T06:15:16;5.40;99.90
15355;DHT22;7777;52.254;9.618;2023-12-22T06:17:41;5.40;99.90
15355;DHT22;7777;52.254;9.618;2023-12-22T06:20:08;5.40;99.90
15355;DHT22;7777;52.254;9.618;2023-12-22T06:22:35;5.40;99.90
15355;DHT22;7777;52.254;9.618;2023-12-22T06:25:00;5.40;99.90
15355;DHT22;7777;52.254;9.618;2023-12-22T06:27:28;5.40;99.90
15355;DHT22;7777;52.254;9.618;2023-12-22T06:29:54;5.40;99.90
15355;DHT22;7777;52.254;9.618;2023-12-22T06:32:21;5.40;99.90
15355;DHT22;7777;52.254;9.618;2023-12-22T06:34:47;5.40;99.90
15355;DHT22;7777;52.254;9.618;2023-12-22T06:37:12;5.40;99.90
15355;DHT22;7777;52.254;9.618;2023-12-22T06:39:38;5.40;99.90
15355;DHT22;7777;52.254;9.618;2023-12-22T06:42:04;5.40;99.90
15355;DHT22;7777;52.254;9.618;2023-12-22T06:44:36;5.40;99.90
15355;DHT22;7777;52.254;9.618;2023-12-22T06:47:02;5.40;99.90
15355;DHT22;7777;52.254;9.618;2023-12-22T06:49:28;5.40;99.90
15355;DHT22;7777;52.254;9.618;2023-12-22T06:51:54;5.40;99.90
15355;DHT22;7777;52.254;9.618;2023-12-22T06:54:19;5.30;99.90
15355;DHT22;7777;52.254;9.618;2023-12-22T06:56:46;5.30;99.90
15355;DHT22;7777;52.254;9.618;2023-12-22T06:59:12;5.20;99.90
15355;DHT22;7777;52.254;9.618;2023-12-22T07:01:38;5.20;99.90
15355;DHT22;7777;52.254;9.618;2023-12-22T07:04:04;5.10;99.90
15355;DHT22;7777;52.254;9.618;2023-12-22T07:06:33;4.90;99.90
15355;DHT22;7777;52.254;9.618;2023-12-22T07:11:41;4.80;99.90
15355;DHT22;7777;52.254;9.618;2023-12-22T07:14:10;4.70;99.90
15355;DHT22;7777;52.254;9.618;2023-12-22T07:16:36;4.70;99.90
15355;DHT22;7777;52.254;9.618;2023-12-22T07:19:03;4.70;99.90
15355;DHT22;7777;52.254;9.618;2023-12-22T07:21:29;4.70;99.90
15355;DHT22;7777;52.254;9.618;2023-12-22T07:23:57;4.70;99.90
15355;DHT22;7777;52.254;9.618;2023-12-22T07:26:24;4.70;99.90
15355;DHT22;7777;52.254;9.618;2023-12-22T07:28:52;4.70;99.90
15355;DHT22;7777;52.254;9.618;2023-12-22T07:31:18;4.70;99.90
15355;DHT22;7777;52.254;9.618;2023-12-22T07:33:45;4.70;99.90
15355;DHT22;7777;52.254;9.618;2023-12-22T07:36:11;4.70;99.90
15355;DHT22;7777;52.254;9.618;2023-12-22T07:38:38;4.70;99.90
15355;DHT22;7777;52.254;9.618;2023-12-22T07:41:07;4.80;99.90
15355;DHT22;7777;52.254;9.618;2023-12-22T07:43:33;4.80;99.90
15355;DHT22;7777;52.254;9.618;2023-12-22T07:45:58;4.80;99.90
15355;DHT22;7777;52.254;9.618;2023-12-22T07:48:24;4.90;99.90
15355;DHT22;7777;52.254;9.618;2023-12-22T07:50:50;4.90;99.90
15355;DHT22;7777;52.254;9.618;2023-12-22T07:53:16;4.90;99.90
15355;DHT22;7777;52.254;9.618;2023-12-22T07:55:43;4.90;99.90
15355;DHT22;7777;52.254;9.618;2023-12-22T07:58:10;5.00;99.90
15355;DHT22;7777;52.254;9.618;2023-12-22T08:00:36;5.00;99.90
15355;DHT22;7777;52.254;9.618;2023-12-22T08:03:02;5.10;99.90
15355;DHT22;7777;52.254;9.618;2023-12-22T08:05:28;5.10;99.90
15355;DHT22;7777;52.254;9.618;2023-12-22T08:07:55;5.10;99.90
15355;DHT22;7777;52.254;9.618;2023-12-22T08:10:21;5.10;99.90
15355;DHT22;7777;52.254;9.618;2023-12-22T08:12:48;5.20;99.90
15355;DHT22;7777;52.254;9.618;2023-12-22T08:15:14;5.20;99.90
15355;DHT22;7777;52.254;9.618;2023-12-22T08:17:50;5.20;99.90
15355;DHT22;7777;52.254;9.618;2023-12-22T08:20:18;5.20;99.90
15355;DHT22;7777;52.254;9.618;2023-12-22T08:22:47;5.20;99.90
15355;DHT22;7777;52.254;9.618;2023-12-22T08:25:14;5.30;99.90
15355;DHT22;7777;52.254;9.618;2023-12-22T08:27:40;5.30;99.90
15355;DHT22;7777;52.254;9.618;2023-12-22T08:30:06;5.40;99.90
15355;DHT22;7777;52.254;9.618;2023-12-22T08:32:34;5.40;99.90
15355;DHT22;7777;52.254;9.618;2023-12-22T08:35:00;5.40;99.90
15355;DHT22;7777;52.254;9.618;2023-12-22T08:37:29;5.40;99.90
15355;DHT22;7777;52.254;9.618;2023-12-22T08:39:55;5.40;99.90
15355;DHT22;7777;52.254;9.618;2023-12-22T08:42:23;5.50;99.90
15355;DHT22;7777;52.254;9.618;2023-12-22T08:44:52;5.40;99.90
15355;DHT22;7777;52.254;9.618;2023-12-22T08:47:19;5.50;99.90
15355;DHT22;7777;52.254;9.618;2023-12-22T08:49:44;5.60;99.90
15355;DHT22;7777;52.254;9.618;2023-12-22T08:52:10;5.50;99.90
15355;DHT22;7777;52.254;9.618;2023-12-22T08:54:36;5.60;99.90
15355;DHT22;7777;52.254;9.618;2023-12-22T08:57:02;5.60;99.90
15355;DHT22;7777;52.254;9.618;2023-12-22T08:59:28;5.70;99.90
15355;DHT22;7777;52.254;9.618;2023-12-22T09:01:54;5.70;99.90
15355;DHT22;7777;52.254;9.618;2023-12-22T09:04:20;5.70;99.90
15355;DHT22;7777;52.254;9.618;2023-12-22T09:06:48;5.70;99.90
15355;DHT22;7777;52.254;9.618;2023-12-22T09:09:15;5.80;99.90
15355;DHT22;7777;52.254;9.618;2023-12-22T09:11:41;5.80;99.90
15355;DHT22;7777;52.254;9.618;2023-12-22T09:14:07;5.80;99.90
15355;DHT22;7777;52.254;9.618;2023-12-22T09:16:35;5.90;99.90
15355;DHT22;7777;52.254;9.618;2023-12-22T09:19:01;5.90;99.90
15355;DHT22;7777;52.254;9.618;2023-12-22T09:21:28;5.90;99.90
15355;DHT22;7777;52.254;9.618;2023-12-22T09:23:54;5.90;99.90
15355;DHT22;7777;52.254;9.618;2023-12-22T09:26:20;5.90;99.90
15355;DHT22;7777;52.254;9.618;2023-12-22T09:28:46;6.00;99.90
15355;DHT22;7777;52.254;9.618;2023-12-22T09:31:12;6.00;99.90
15355;DHT22;7777;52.254;9.618;2023-12-22T09:33:40;6.00;99.90
15355;DHT22;7777;52.254;9.618;2023-12-22T09:36:07;6.00;99.90
15355;DHT22;7777;52.254;9.618;2023-12-22T09:38:33;6.00;99.90
15355;DHT22;7777;52.254;9.618;2023-12-22T09:41:01;6.00;99.90
15355;DHT22;7777;52.254;9.618;2023-12-22T09:43:28;6.00;99.90
15355;DHT22;7777;52.254;9.618;2023-12-22T09:45:54;6.10;99.90
15355;DHT22;7777;52.254;9.618;2023-12-22T09:48:21;6.00;99.90
15355;DHT22;7777;52.254;9.618;2023-12-22T09:50:53;6.10;99.90
15355;DHT22;7777;52.254;9.618;2023-12-22T09:53:20;6.10;99.90
15355;DHT22;7777;52.254;9.618;2023-12-22T09:55:46;6.10;99.90
15355;DHT22;7777;52.254;9.618;2023-12-22T09:58:13;6.10;99.90
15355;DHT22;7777;52.254;9.618;2023-12-22T10:00:40;6.10;99.90
15355;DHT22;7777;52.254;9.618;2023-12-22T10:03:06;6.00;99.90
15355;DHT22;7777;52.254;9.618;2023-12-22T10:05:36;6.00;99.90
15355;DHT22;7777;52.254;9.618;2023-12-22T10:08:03;6.00;99.90
15355;DHT22;7777;52.254;9.618;2023-12-22T10:10:30;6.10;99.90
15355;DHT22;7777;52.254;9.618;2023-12-22T10:12:59;6.10;99.90
15355;DHT22;7777;52.254;9.618;2023-12-22T10:15:24;6.10;99.90
15355;DHT22;7777;52.254;9.618;2023-12-22T10:17:53;6.10;99.90
15355;DHT22;7777;52.254;9.618;2023-12-22T10:20:20;6.10;99.90
15355;DHT22;7777;52.254;9.618;2023-12-22T10:22:47;6.10;99.90
15355;DHT22;7777;52.254;9.618;2023-12-22T10:25:20;6.10;99.90
15355;DHT22;7777;52.254;9.618;2023-12-22T10:27:48;6.20;99.90
15355;DHT22;7777;52.254;9.618;2023-12-22T10:30:14;6.20;99.90
15355;DHT22;7777;52.254;9.618;2023-12-22T10:32:41;6.20;99.90
15355;DHT22;7777;52.254;9.618;2023-12-22T10:35:09;6.20;99.90
15355;DHT22;7777;52.254;9.618;2023-12-22T10:37:35;6.20;99.90
15355;DHT22;7777;52.254;9.618;2023-12-22T10:40:04;6.20;99.90
15355;DHT22;7777;52.254;9.618;2023-12-22T10:42:32;6.20;99.90
15355;DHT22;7777;52.254;9.618;2023-12-22T10:44:58;6.30;99.90
15355;DHT22;7777;52.254;9.618;2023-12-22T10:47:24;6.30;99.90
15355;DHT22;7777;52.254;9.618;2023-12-22T10:49:50;6.30;99.90
15355;DHT22;7777;52.254;9.618;2023-12-22T10:52:17;6.30;99.90
15355;DHT22;7777;52.254;9.618;2023-12-22T10:54:43;6.40;99.90
15355;DHT22;7777;52.254;9.618;2023-12-22T10:57:10;6.40;99.90
15355;DHT22;7777;52.254;9.618;2023-12-22T10:59:44;6.40;99.90
15355;DHT22;7777;52.254;9.618;2023-12-22T11:02:18;6.50;99.90
15355;DHT22;7777;52.254;9.618;2023-12-22T11:05:06;6.50;99.90
15355;DHT22;7777;52.254;9.618;2023-12-22T11:07:36;6.50;99.90
15355;DHT22;7777;52.254;9.618;2023-12-22T11:10:04;6.60;99.90
15355;DHT22;7777;52.254;9.618;2023-12-22T11:12:35;6.60;99.90
15355;DHT22;7777;52.254;9.618;2023-12-22T11:15:03;6.60;99.90
15355;DHT22;7777;52.254;9.618;2023-12-22T11:17:33;6.60;99.90
15355;DHT22;7777;52.254;9.618;2023-12-22T11:19:59;6.60;99.90
15355;DHT22;7777;52.254;9.618;2023-12-22T11:22:26;6.70;99.90
15355;DHT22;7777;52.254;9.618;2023-12-22T11:24:53;6.70;99.90
15355;DHT22;7777;52.254;9.618;2023-12-22T11:27:20;6.70;99.90
15355;DHT22;7777;52.254;9.618;2023-12-22T11:29:48;6.80;99.90
15355;DHT22;7777;52.254;9.618;2023-12-22T11:32:19;6.80;99.90
15355;DHT22;7777;52.254;9.618;2023-12-22T11:34:46;6.90;99.90
15355;DHT22;7777;52.254;9.618;2023-12-22T11:37:13;6.90;99.90
15355;DHT22;7777;52.254;9.618;2023-12-22T11:39:43;6.90;99.90
15355;DHT22;7777;52.254;9.618;2023-12-22T11:42:14;6.90;99.90
15355;DHT22;7777;52.254;9.618;2023-12-22T11:44:43;6.90;99.90
15355;DHT22;7777;52.254;9.618;2023-12-22T11:47:10;7.00;99.90
15355;DHT22;7777;52.254;9.618;2023-12-22T11:49:37;7.00;99.90
15355;DHT22;7777;52.254;9.618;2023-12-22T11:52:11;7.00;99.90
15355;DHT22;7777;52.254;9.618;2023-12-22T11:54:53;7.00;99.90
15355;DHT22;7777;52.254;9.618;2023-12-22T11:59:55;7.10;99.90
15355;DHT22;7777;52.254;9.618;2023-12-22T12:02:23;7.10;99.90
15355;DHT22;7777;52.254;9.618;2023-12-22T12:04:50;7.10;99.90
15355;DHT22;7777;52.254;9.618;2023-12-22T12:07:38;7.10;99.90
15355;DHT22;7777;52.254;9.618;2023-12-22T12:13:12;7.10;99.90
15355;DHT22;7777;52.254;9.618;2023-12-22T12:15:41;7.10;99.90
15355;DHT22;7777;52.254;9.618;2023-12-22T12:18:07;7.10;99.90
15355;DHT22;7777;52.254;9.618;2023-12-22T12:20:34;7.10;99.90
15355;DHT22;7777;52.254;9.618;2023-12-22T12:23:03;7.20;99.90
15355;DHT22;7777;52.254;9.618;2023-12-22T12:25:31;7.20;99.90
15355;DHT22;7777;52.254;9.618;2023-12-22T12:28:05;7.20;99.90
15355;DHT22;7777;52.254;9.618;2023-12-22T12:30:32;7.20;99.90
15355;DHT22;7777;52.254;9.618;2023-12-22T12:33:09;7.20;99.90
15355;DHT22;7777;52.254;9.618;2023-12-22T12:35:39;7.20;99.90
15355;DHT22;7777;52.254;9.618;2023-12-22T12:38:06;7.20;99.90
15355;DHT22;7777;52.254;9.618;2023-12-22T12:40:32;7.20;99.90
15355;DHT22;7777;52.254;9.618;2023-12-22T12:43:01;7.20;99.90
15355;DHT22;7777;52.254;9.618;2023-12-22T12:45:27;7.20;99.90
15355;DHT22;7777;52.254;9.618;2023-12-22T12:47:58;7.20;99.90
15355;DHT22;7777;52.254;9.618;2023-12-22T12:50:24;7.20;99.90
15355;DHT22;7777;52.254;9.618;2023-12-22T12:52:54;7.20;99.90
15355;DHT22;7777;52.254;9.618;2023-12-22T12:55:22;7.20;99.90
15355;DHT22;7777;52.254;9.618;2023-12-22T12:57:51;7.20;99.90
15355;DHT22;7777;52.254;9.618;2023-12-22T13:00:24;7.30;99.90
15355;DHT22;7777;52.254;9.618;2023-12-22T13:02:52;7.30;99.90
15355;DHT22;7777;52.254;9.618;2023-12-22T13:05:24;7.20;99.90
15355;DHT22;7777;52.254;9.618;2023-12-22T13:07:50;7.30;99.90
15355;DHT22;7777;52.254;9.618;2023-12-22T13:10:25;7.30;99.90
15355;DHT22;7777;52.254;9.618;2023-12-22T13:12:51;7.30;99.90
15355;DHT22;7777;52.254;9.618;2023-12-22T13:15:20;7.30;99.90
15355;DHT22;7777;52.254;9.618;2023-12-22T13:17:46;7.30;99.90
15355;DHT22;7777;52.254;9.618;2023-12-22T13:20:12;7.30;99.90
15355;DHT22;7777;52.254;9.618;2023-12-22T13:22:39;7.30;99.90
15355;DHT22;7777;52.254;9.618;2023-12-22T13:25:05;7.30;99.90
15355;DHT22;7777;52.254;9.618;2023-12-22T13:27:31;7.30;99.90
15355;DHT22;7777;52.254;9.618;2023-12-22T13:29:56;7.30;99.90
15355;DHT22;7777;52.254;9.618;2023-12-22T13:32:22;7.30;99.90
15355;DHT22;7777;52.254;9.618;2023-12-22T13:34:56;7.30;99.90
15355;DHT22;7777;52.254;9.618;2023-12-22T13:37:22;7.30;99.90
15355;DHT22;7777;52.254;9.618;2023-12-22T13:39:51;7.30;99.90
15355;DHT22;7777;52.254;9.618;2023-12-22T13:42:18;7.30;99.90
15355;DHT22;7777;52.254;9.618;2023-12-22T13:44:48;7.30;99.90
15355;DHT22;7777;52.254;9.618;2023-12-22T13:47:16;7.30;99.90
15355;DHT22;7777;52.254;9.618;2023-12-22T13:49:42;7.30;99.90
15355;DHT22;7777;52.254;9.618;2023-12-22T13:52:27;7.30;99.90
15355;DHT22;7777;52.254;9.618;2023-12-22T13:54:54;7.30;99.90
15355;DHT22;7777;52.254;9.618;2023-12-22T13:57:22;7.30;99.90
15355;DHT22;7777;52.254;9.618;2023-12-22T13:59:48;7.30;99.90
15355;DHT22;7777;52.254;9.618;2023-12-22T14:02:14;7.30;99.90
15355;DHT22;7777;52.254;9.618;2023-12-22T14:04:40;7.30;99.90
15355;DHT22;7777;52.254;9.618;2023-12-22T14:07:06;7.30;99.90
15355;DHT22;7777;52.254;9.618;2023-12-22T14:09:32;7.30;99.90
15355;DHT22;7777;52.254;9.618;2023-12-22T14:11:59;7.30;99.90
15355;DHT22;7777;52.254;9.618;2023-12-22T14:14:25;7.30;99.90
15355;DHT22;7777;52.254;9.618;2023-12-22T14:16:51;7.30;99.90
15355;DHT22;7777;52.254;9.618;2023-12-22T14:19:17;7.30;99.90
15355;DHT22;7777;52.254;9.618;2023-12-22T14:21:43;7.30;99.90
15355;DHT22;7777;52.254;9.618;2023-12-22T14:24:08;7.30;99.90
15355;DHT22;7777;52.254;9.618;2023-12-22T14:26:54;7.30;99.90
15355;DHT22;7777;52.254;9.618;2023-12-22T14:29:21;7.30;99.90
15355;DHT22;7777;52.254;9.618;2023-12-22T14:31:49;7.30;99.90
15355;DHT22;7777;52.254;9.618;2023-12-22T14:34:15;7.30;99.90
15355;DHT22;7777;52.254;9.618;2023-12-22T14:36:40;7.30;99.90
15355;DHT22;7777;52.254;9.618;2023-12-22T14:39:08;7.30;99.90
15355;DHT22;7777;52.254;9.618;2023-12-22T14:41:37;7.20;99.90
15355;DHT22;7777;52.254;9.618;2023-12-22T14:44:03;7.30;99.90
15355;DHT22;7777;52.254;9.618;2023-12-22T14:46:30;7.20;99.90
15355;DHT22;7777;52.254;9.618;2023-12-22T14:48:56;7.20;99.90
15355;DHT22;7777;52.254;9.618;2023-12-22T14:51:22;7.20;99.90
15355;DHT22;7777;52.254;9.618;2023-12-22T14:53:47;7.20;99.90
15355;DHT22;7777;52.254;9.618;2023-12-22T14:56:13;7.20;99.90
15355;DHT22;7777;52.254;9.618;2023-12-22T14:58:39;7.20;99.90
15355;DHT22;7777;52.254;9.618;2023-12-22T15:01:12;7.20;99.90
15355;DHT22;7777;52.254;9.618;2023-12-22T15:03:39;7.20;99.90
15355;DHT22;7777;52.254;9.618;2023-12-22T15:06:04;7.20;99.90
15355;DHT22;7777;52.254;9.618;2023-12-22T15:08:31;7.20;99.90
15355;DHT22;7777;52.254;9.618;2023-12-22T15:10:57;7.20;99.90
15355;DHT22;7777;52.254;9.618;2023-12-22T15:13:24;7.20;99.90
15355;DHT22;7777;52.254;9.618;2023-12-22T15:15:52;7.20;99.90
15355;DHT22;7777;52.254;9.618;2023-12-22T15:18:18;7.20;99.90
15355;DHT22;7777;52.254;9.618;2023-12-22T15:20:45;7.20;99.90
15355;DHT22;7777;52.254;9.618;2023-12-22T15:23:11;7.20;99.90
15355;DHT22;7777;52.254;9.618;2023-12-22T15:25:37;7.20;99.90
15355;DHT22;7777;52.254;9.618;2023-12-22T15:28:02;7.20;99.90
15355;DHT22;7777;52.254;9.618;2023-12-22T15:30:28;7.20;99.90
15355;DHT22;7777;52.254;9.618;2023-12-22T15:32:55;7.20;99.90
15355;DHT22;7777;52.254;9.618;2023-12-22T15:35:21;7.20;99.90
15355;DHT22;7777;52.254;9.618;2023-12-22T15:37:47;7.20;99.90
15355;DHT22;7777;52.254;9.618;2023-12-22T15:40:13;7.20;99.90
15355;DHT22;7777;52.254;9.618;2023-12-22T15:42:38;7.20;99.90
15355;DHT22;7777;52.254;9.618;2023-12-22T15:45:04;7.20;99.90
15355;DHT22;7777;52.254;9.618;2023-12-22T15:47:32;7.20;99.90
15355;DHT22;7777;52.254;9.618;2023-12-22T15:50:00;7.20;99.90
15355;DHT22;7777;52.254;9.618;2023-12-22T15:52:26;7.20;99.90
15355;DHT22;7777;52.254;9.618;2023-12-22T15:54:52;7.20;99.90
15355;DHT22;7777;52.254;9.618;2023-12-22T15:57:18;7.20;99.90
15355;DHT22;7777;52.254;9.618;2023-12-22T15:59:44;7.10;99.90
15355;DHT22;7777;52.254;9.618;2023-12-22T16:02:09;7.20;99.90
15355;DHT22;7777;52.254;9.618;2023-12-22T16:04:35;7.20;99.90
15355;DHT22;7777;52.254;9.618;2023-12-22T16:07:01;7.20;99.90
15355;DHT22;7777;52.254;9.618;2023-12-22T16:09:27;7.20;99.90
15355;DHT22;7777;52.254;9.618;2023-12-22T16:11:53;7.20;99.90
15355;DHT22;7777;52.254;9.618;2023-12-22T16:14:19;7.20;99.90